Time;durP1;ratioP1;P1;durP2;ratioP2;P2;SDS_P1;SDS_P2;PMS_P1;PMS_P2;Temp;Humidity;BMP_temperature;BMP_pressure;BME280_temperature;BME280_humidity;BME280_pressure;Samples;Min_cycle;Max_cycle;Signal;HPM_P1;HPM_P2
2022/12/17 13:06:45;;;;;;;23.90;14.45;;;;;;;6.01;85.24;102613.63;5096920;28;20428;-77
2022/12/17 13:09:24;;;;;;;24.02;14.13;;;;;;;5.74;75.75;102615.63;5097316;28;20024;-78
2022/12/17 13:11:56;;;;;;;24.77;14.68;;;;;;;5.91;83.41;102609.63;5097539;28;20024;-80
2022/12/17 13:14:34;;;;;;;22.17;14.35;;;;;;;5.64;78.02;102613.38;5097354;28;20111;-83
2022/12/17 13:17:05;;;;;;;23.63;14.88;;;;;;;5.59;82.89;102615.31;5097246;28;20031;-82
2022/12/17 13:19:31;;;;;;;30.98;16.75;;;;;;;5.42;87.50;102607.22;5096811;28;20028;-83
2022/12/17 13:22:08;;;;;;;30.38;15.52;;;;;;;5.40;84.41;102601.16;5096592;28;20161;-80
2022/12/17 13:24:34;;;;;;;29.70;17.00;;;;;;;4.85;94.86;102591.88;5096421;28;20113;-78
2022/12/17 13:26:59;;;;;;;32.83;18.10;;;;;;;3.97;98.97;102589.81;5096418;28;20055;-79
2022/12/17 13:29:32;;;;;;;38.05;19.92;;;;;;;3.18;100.00;102599.44;5096647;28;20163;-78
2022/12/17 13:32:01;;;;;;;41.13;22.38;;;;;;;2.87;100.00;102586.38;5096601;28;20490;-81
2022/12/17 13:35:14;;;;;;;36.38;21.30;;;;;;;2.07;100.00;102597.34;5096145;28;20359;-81
2022/12/17 13:38:05;;;;;;;35.72;22.33;;;;;;;2.15;100.00;102600.66;5069484;28;20379;-77
2022/12/17 13:40:47;;;;;;;40.17;21.98;;;;;;;1.75;100.00;102599.06;5096406;28;20448;-75
2022/12/17 13:43:18;;;;;;;38.45;23.15;;;;;;;1.39;100.00;102599.06;5096078;28;20032;-79
2022/12/17 13:45:44;;;;;;;42.30;24.02;;;;;;;1.14;100.00;102609.28;5096666;28;20043;-80
2022/12/17 13:48:20;;;;;;;39.30;22.05;;;;;;;0.74;100.00;102602.28;5096139;28;20028;-81
2022/12/17 13:50:54;;;;;;;41.47;23.75;;;;;;;0.44;100.00;102605.47;5096248;28;20064;-81
2022/12/17 13:53:19;;;;;;;38.58;23.50;;;;;;;0.45;100.00;102598.47;5095919;28;20471;-78
2022/12/17 13:55:52;;;;;;;38.35;24.30;;;;;;;0.40;100.00;102600.34;5095567;28;20036;-80
2022/12/17 13:58:23;;;;;;;41.20;24.35;;;;;;;0.32;100.00;102608.34;5095673;28;20032;-83
2022/12/17 14:00:49;;;;;;;43.97;23.73;;;;;;;0.28;100.00;102604.91;5095329;28;20028;-81
2022/12/17 14:03:20;;;;;;;43.78;25.70;;;;;;;0.20;100.00;102605.97;5095709;28;20055;-82
2022/12/17 14:05:46;;;;;;;46.47;25.48;;;;;;;0.11;100.00;102607.84;5095250;28;20495;-82
2022/12/17 14:08:17;;;;;;;40.67;26.42;;;;;;;-0.14;100.00;102612.66;5095339;28;20028;-80
2022/12/17 14:12:20;;;;;;;43.70;27.20;;;;;;;-0.29;100.00;102612.94;5095269;28;20028;-81
2022/12/17 14:13:39;;;;;;;42.53;27.08;;;;;;;-0.49;100.00;102611.50;5094760;28;20480;-81
2022/12/17 14:16:04;;;;;;;53.78;27.95;;;;;;;-0.73;100.00;102615.38;5094915;28;20143;-81
2022/12/17 14:18:30;;;;;;;46.22;28.13;;;;;;;-0.83;100.00;102617.22;5095032;28;20078;-82
2022/12/17 14:20:56;;;;;;;51.33;30.40;;;;;;;-0.90;100.00;102621.69;5094978;28;20138;-80
2022/12/17 14:23:32;;;;;;;44.60;27.92;;;;;;;-0.99;100.00;102623.56;5094919;28;20036;-80
2022/12/17 14:25:58;;;;;;;45.88;28.05;;;;;;;-1.10;100.00;102627.19;5095064;28;20043;-81
2022/12/17 14:28:35;;;;;;;54.13;29.58;;;;;;;-1.15;100.00;102633.34;5095293;28;20032;-81
2022/12/17 14:31:18;;;;;;;48.90;28.48;;;;;;;-1.23;100.00;102637.81;5096008;28;20031;-81
2022/12/17 14:33:44;;;;;;;49.38;28.13;;;;;;;-1.29;100.00;102639.59;5099796;28;20031;-81
2022/12/17 14:36:15;;;;;;;47.20;29.30;;;;;;;-1.34;100.00;102646.63;5096866;28;20498;-79
2022/12/17 14:38:50;;;;;;;50.63;29.45;;;;;;;-1.39;100.00;102643.19;5077895;28;20056;-78
2022/12/17 14:44:01;;;;;;;42.88;26.98;;;;;;;-1.51;100.00;102644.19;5094694;28;20085;-80
2022/12/17 14:46:28;;;;;;;50.42;29.05;;;;;;;-1.59;100.00;102651.25;5094609;28;20036;-78
2022/12/17 14:49:02;;;;;;;53.70;29.02;;;;;;;-1.69;100.00;102645.25;5094384;28;20032;-84
2022/12/17 14:51:40;;;;;;;52.50;30.02;;;;;;;-1.77;100.00;102660.16;5094481;28;20028;-77
2022/12/17 14:54:21;;;;;;;48.55;28.00;;;;;;;-1.81;100.00;102663.66;5094676;28;20028;-80
2022/12/17 14:56:48;;;;;;;48.00;28.92;;;;;;;-1.87;100.00;102654.13;5094419;28;20024;-82
2022/12/17 14:59:23;;;;;;;45.85;29.88;;;;;;;-1.91;100.00;102656.78;5094442;28;20109;-81
2022/12/17 15:01:48;;;;;;;49.08;29.13;;;;;;;-1.96;100.00;102664.66;5094023;28;20055;-80
2022/12/17 15:04:16;;;;;;;51.95;30.80;;;;;;;-2.04;100.00;102659.53;5097795;28;20032;-80
2022/12/17 15:06:41;;;;;;;52.60;30.20;;;;;;;-2.10;100.00;102663.94;5099184;28;20031;-81
2022/12/17 15:09:10;;;;;;;55.72;32.13;;;;;;;-2.16;100.00;102672.66;5064559;28;20472;-80
2022/12/17 15:11:36;;;;;;;54.25;30.60;;;;;;;-2.24;100.00;102677.94;5094731;28;20039;-80
2022/12/17 15:14:01;;;;;;;53.90;30.52;;;;;;;-2.31;100.00;102678.88;5094432;28;20079;-81
2022/12/17 15:16:26;;;;;;;54.08;31.50;;;;;;;-2.37;100.00;102679.78;5079539;28;20039;-81
2022/12/17 15:18:52;;;;;;;55.80;33.58;;;;;;;-2.45;100.00;102678.09;5094642;28;20039;-83
2022/12/17 15:21:18;;;;;;;53.75;33.10;;;;;;;-2.52;100.00;102688.56;5093908;28;20024;-79
2022/12/17 15:23:45;;;;;;;57.05;33.60;;;;;;;-2.58;100.00;102683.38;5093159;28;20036;-80
2022/12/17 15:26:11;;;;;;;55.25;32.80;;;;;;;-2.67;100.00;102686.91;5093657;28;20032;-80
2022/12/17 15:28:36;;;;;;;61.17;34.13;;;;;;;-2.75;100.00;102695.63;5093977;28;20043;-79
2022/12/17 15:31:02;;;;;;;65.05;35.55;;;;;;;-2.78;100.00;102683.47;5093742;28;20406;-79
2022/12/17 15:33:27;;;;;;;61.75;34.58;;;;;;;-2.86;100.00;102696.56;5075358;28;20040;-82
2022/12/17 15:35:53;;;;;;;63.80;37.40;;;;;;;-2.94;100.00;102698.34;5093205;28;20043;-81
2022/12/17 15:38:18;;;;;;;58.83;33.60;;;;;;;-2.98;100.00;102708.78;5093179;28;20182;-81
2022/12/17 15:40:44;;;;;;;64.38;35.65;;;;;;;-3.05;100.00;102700.13;5093154;28;20032;-82
2022/12/17 15:43:10;;;;;;;57.88;34.88;;;;;;;-3.12;100.00;102704.50;5093469;28;20479;-82
2022/12/17 15:45:43;;;;;;;64.82;37.25;;;;;;;-3.19;100.00;102706.22;5093413;28;20036;-79
2022/12/17 15:48:10;;;;;;;68.15;36.88;;;;;;;-3.20;100.00;102711.44;5093675;28;20032;-80
2022/12/17 15:50:36;;;;;;;67.35;37.58;;;;;;;-3.26;100.00;102703.66;5093331;28;20039;-81
2022/12/17 15:53:01;;;;;;;67.43;36.60;;;;;;;-3.27;100.00;102709.72;5093297;28;20028;-81
2022/12/17 15:55:27;;;;;;;65.25;38.10;;;;;;;-3.26;100.00;102711.47;5093198;28;20078;-81
2022/12/17 15:57:53;;;;;;;67.10;38.05;;;;;;;-3.36;100.00;102708.00;5093262;28;20127;-80
2022/12/17 16:00:19;;;;;;;67.43;37.40;;;;;;;-3.38;100.00;102702.81;5093331;28;20120;-80
2022/12/17 16:02:45;;;;;;;78.28;37.80;;;;;;;-3.42;100.00;102711.53;5093487;28;20087;-79
2022/12/17 16:05:11;;;;;;;71.15;37.13;;;;;;;-3.46;100.00;102711.50;5093522;28;20553;-79
2022/12/17 16:07:36;;;;;;;65.53;37.35;;;;;;;-3.48;100.00;102710.66;5094054;28;20036;-78
2022/12/17 16:10:03;;;;;;;72.47;38.30;;;;;;;-3.53;100.00;102715.88;5093632;28;20131;-79
2022/12/17 16:12:29;;;;;;;68.65;37.17;;;;;;;-3.56;100.00;102711.53;5093689;28;20056;-79
2022/12/17 16:14:54;;;;;;;82.32;37.95;;;;;;;-3.61;100.00;102721.09;5074995;28;20066;-76
2022/12/17 16:17:19;;;;;;;79.72;37.72;;;;;;;-3.69;100.00;102715.00;5093265;28;20141;-76
2022/12/17 16:19:45;;;;;;;73.90;37.50;;;;;;;-3.71;100.00;102716.75;5093032;28;20456;-76
2022/12/17 16:22:10;;;;;;;77.00;36.75;;;;;;;-3.76;100.00;102718.50;5093365;28;20421;-77
2022/12/17 16:24:36;;;;;;;69.80;35.28;;;;;;;-3.77;100.00;102725.44;5093131;28;20035;-77
2022/12/17 16:27:02;;;;;;;76.78;37.30;;;;;;;-3.82;100.00;102724.56;5093295;28;20511;-76
2022/12/17 16:29:27;;;;;;;75.00;37.60;;;;;;;-3.88;100.00;102726.28;5075031;28;20092;-76
2022/12/17 16:31:52;;;;;;;80.20;35.92;;;;;;;-3.92;100.00;102731.50;5093368;28;20032;-76
2022/12/17 16:34:18;;;;;;;79.75;38.03;;;;;;;-3.86;100.00;102728.03;5095778;28;20032;-77
2022/12/17 16:36:43;;;;;;;79.30;36.85;;;;;;;-3.90;100.00;102731.50;5097201;28;20418;-78
2022/12/17 16:39:15;;;;;;;75.45;37.65;;;;;;;-3.95;100.00;102723.69;5097623;28;20082;-77
2022/12/17 16:41:40;;;;;;;;;;;;;;;-4.01;100.00;102722.84;5097579;28;20028;-78
2022/12/17 16:44:05;;;;;;;78.85;35.05;;;;;;;-4.06;100.00;102720.25;5097362;28;20385;-79
2022/12/17 16:46:33;;;;;;;86.95;37.22;;;;;;;-4.11;100.00;102722.81;5097582;28;20107;-77
2022/12/17 16:49:15;;;;;;;77.68;36.85;;;;;;;-4.10;100.00;102729.75;5096828;28;20040;-77
2022/12/17 16:51:42;;;;;;;84.72;36.65;;;;;;;-4.15;100.00;102726.31;5096745;28;20120;-77
2022/12/17 16:54:12;;;;;;;81.55;35.42;;;;;;;-4.20;100.00;102724.56;5097236;28;20036;-76
2022/12/17 16:56:37;;;;;;;89.35;37.75;;;;;;;-4.25;100.00;102725.41;5079237;28;20036;-76
2022/12/17 16:59:03;;;;;;;89.28;38.33;;;;;;;-4.26;100.00;102725.41;5096661;28;20062;-77
2022/12/17 17:01:29;;;;;;;89.82;38.55;;;;;;;-4.29;100.00;102723.66;5096716;28;20079;-78
2022/12/17 17:03:55;;;;;;;87.15;37.95;;;;;;;-4.37;100.00;102724.50;5096811;28;20464;-77
2022/12/17 17:06:21;;;;;;;86.60;38.13;;;;;;;-4.43;100.00;102722.78;5097364;28;20090;-77
2022/12/17 17:08:47;;;;;;;87.75;38.72;;;;;;;-4.47;100.00;102726.22;5096775;28;20086;-76
2022/12/17 17:11:20;;;;;;;85.72;35.80;;;;;;;-4.53;100.00;102721.03;5096636;28;20388;-78
2022/12/17 17:13:46;;;;;;;90.32;37.95;;;;;;;-4.60;100.00;102730.50;5096712;28;20145;-74
2022/12/17 17:16:12;;;;;;;91.07;38.15;;;;;;;-4.64;100.00;102731.41;5096080;28;20154;-75
2022/12/17 17:18:38;;;;;;;105.72;41.22;;;;;;;-4.66;100.00;102734.00;5096327;28;20063;-76
2022/12/17 17:21:18;;;;;;;102.95;42.15;;;;;;;-4.70;100.00;102732.25;5096339;28;20035;-77
2022/12/17 17:23:49;;;;;;;110.50;43.28;;;;;;;-4.76;100.00;102740.00;5096159;28;20085;-78
2022/12/17 17:26:15;;;;;;;87.53;41.70;;;;;;;-4.81;100.00;102742.59;5096982;28;20478;-77
2022/12/17 17:28:41;;;;;;;107.50;45.58;;;;;;;-4.79;100.00;102740.00;5096086;28;20274;-77
2022/12/17 17:31:09;;;;;;;115.65;44.78;;;;;;;-4.78;100.00;102745.19;5096279;28;20358;-75
2022/12/17 17:33:38;;;;;;;124.85;46.60;;;;;;;-4.79;100.00;102746.06;5096626;28;20044;-76
2022/12/17 17:36:08;;;;;;;113.05;44.97;;;;;;;-4.83;100.00;102744.28;5096165;28;20500;-75
2022/12/17 17:38:35;;;;;;;119.68;45.00;;;;;;;-4.85;100.00;102745.16;5095436;28;20495;-76
2022/12/17 17:41:01;;;;;;;101.90;41.78;;;;;;;-4.87;100.00;102742.53;5096019;28;20031;-75
2022/12/17 17:43:27;;;;;;;109.25;40.28;;;;;;;-4.91;100.00;102745.13;5096375;28;20380;-75
2022/12/17 17:45:54;;;;;;;100.00;40.35;;;;;;;-4.99;100.00;102751.13;5095885;28;20445;-76
2022/12/17 17:48:20;;;;;;;93.90;37.65;;;;;;;-5.08;100.00;102747.66;5096053;28;20028;-75
2022/12/17 17:51:02;;;;;;;87.50;36.55;;;;;;;-5.19;100.00;102748.44;5095562;28;20028;-75
2022/12/17 17:53:27;;;;;;;92.75;36.17;;;;;;;-5.26;100.00;102753.59;5095815;28;20039;-74
2022/12/17 17:55:52;;;;;;;95.30;38.78;;;;;;;-5.33;100.00;102745.78;5095742;28;20024;-74
2022/12/17 17:58:18;;;;;;;103.30;39.53;;;;;;;-5.38;100.00;102744.00;5097370;28;20032;-75
2022/12/17 18:00:43;;;;;;;108.43;38.05;;;;;;;-5.38;100.00;102744.00;5099766;28;20365;-78
2022/12/17 18:03:09;;;;;;;110.50;40.80;;;;;;;-5.41;100.00;102744.00;5098148;28;20097;-76
2022/12/17 18:05:38;;;;;;;120.15;39.28;;;;;;;-5.44;100.00;102739.66;5096236;28;20380;-75
2022/12/17 18:08:04;;;;;;;128.93;40.47;;;;;;;-5.44;100.00;102743.97;5095681;28;20032;-75
2022/12/17 18:10:29;;;;;;;125.95;40.78;;;;;;;-5.43;100.00;102740.50;5095612;28;20040;-78
2022/12/17 18:15:39;;;;;;;123.07;39.47;;;;;;;-5.44;100.00;102741.38;5095819;28;20123;-74
2022/12/17 18:18:04;;;;;;;123.75;41.28;;;;;;;-5.41;100.00;102754.38;5077056;28;20404;-76
2022/12/17 18:20:29;;;;;;;142.70;42.15;;;;;;;-5.42;100.00;102757.81;5095258;28;20380;-78
2022/12/17 18:22:55;;;;;;;131.65;41.25;;;;;;;-5.43;100.00;102759.56;5095180;28;20400;-76
2022/12/17 18:25:20;;;;;;;132.05;40.05;;;;;;;-5.44;100.00;102757.81;5095208;28;20387;-75
2022/12/17 18:27:45;;;;;;;148.68;42.63;;;;;;;-5.44;100.00;102760.41;5076795;28;20028;-76
2022/12/17 18:30:11;;;;;;;145.65;42.17;;;;;;;-5.47;100.00;102759.53;5094943;28;20469;-75
2022/12/17 18:32:37;;;;;;;138.60;42.47;;;;;;;-5.44;100.00;102756.94;5095275;28;20054;-75
2022/12/17 18:35:02;;;;;;;144.18;42.97;;;;;;;-5.41;100.00;102755.22;5094753;28;20105;-76
2022/12/17 18:37:28;;;;;;;150.80;42.95;;;;;;;-5.33;100.00;102761.34;5094388;28;20135;-75
2022/12/17 18:39:53;;;;;;;150.88;43.15;;;;;;;-5.29;100.00;102763.97;5094545;28;20028;-76
2022/12/17 18:45:03;;;;;;;154.43;42.20;;;;;;;-5.16;100.00;102770.97;5095189;28;20039;-74
2022/12/17 18:47:29;;;;;;;159.80;43.80;;;;;;;-5.10;100.00;102776.19;5095074;28;20028;-75
2022/12/17 18:49:54;;;;;;;165.65;44.03;;;;;;;-5.07;100.00;102773.63;5094674;28;20530;-76
2022/12/17 18:52:21;;;;;;;140.57;40.63;;;;;;;-5.02;100.00;102765.84;5076971;28;20043;-75
2022/12/17 18:54:46;;;;;;;163.27;43.28;;;;;;;-4.98;100.00;102762.41;5094987;28;20135;-75
2022/12/17 18:57:12;;;;;;;160.90;43.03;;;;;;;-4.93;100.00;102767.63;5093663;28;20496;-74
2022/12/17 18:59:39;;;;;;;142.93;41.17;;;;;;;-4.89;100.00;102775.44;5094424;28;20040;-75
2022/12/17 19:02:08;;;;;;;150.48;42.83;;;;;;;-4.85;100.00;102776.31;5094598;28;20430;-75
2022/12/17 19:04:34;;;;;;;131.80;39.83;;;;;;;-4.82;100.00;102785.00;5095050;28;20055;-74
2022/12/17 19:06:59;;;;;;;142.95;40.50;;;;;;;-4.82;100.00;102785.00;5076520;28;20034;-76
2022/12/17 19:09:27;;;;;;;150.93;42.22;;;;;;;-4.80;100.00;102782.41;5095117;28;20032;-76
2022/12/17 19:11:54;;;;;;;145.05;41.38;;;;;;;-4.79;100.00;102789.34;5076429;28;20529;-76
2022/12/17 19:14:21;;;;;;;142.70;41.78;;;;;;;-4.79;100.00;102787.59;5094455;28;20060;-75
2022/12/17 19:16:47;;;;;;;150.07;40.40;;;;;;;-4.78;100.00;102784.16;5094282;28;20035;-75
2022/12/17 19:19:13;;;;;;;149.80;42.55;;;;;;;-4.76;100.00;102789.38;5075656;28;20072;-79
2022/12/17 19:21:39;;;;;;;141.98;40.88;;;;;;;-4.75;100.00;102793.66;5093625;28;20038;-74
2022/12/17 19:24:06;;;;;;;137.95;40.63;;;;;;;-4.74;100.00;102792.81;5075928;28;20027;-74
2022/12/17 19:26:33;;;;;;;147.23;43.25;;;;;;;-4.72;100.00;102796.28;5093235;28;20047;-78
2022/12/17 19:28:59;;;;;;;143.85;40.92;;;;;;;-4.70;100.00;102789.38;5075855;28;20368;-77
2022/12/17 19:31:28;;;;;;;148.35;40.95;;;;;;;-4.68;100.00;102795.44;5093525;28;20028;-76
2022/12/17 19:33:58;;;;;;;147.27;41.53;;;;;;;-4.68;100.00;102795.44;5093388;28;20063;-77
2022/12/17 19:36:26;;;;;;;136.88;41.15;;;;;;;-4.67;100.00;102798.91;5093485;28;20032;-78
2022/12/17 19:38:53;;;;;;;137.90;41.90;;;;;;;-4.68;100.00;102804.97;5093693;28;20024;-78
2022/12/17 19:41:19;;;;;;;142.05;39.40;;;;;;;-4.69;100.00;102806.69;5093698;28;20055;-74
2022/12/17 19:43:47;;;;;;;138.70;40.42;;;;;;;-4.70;100.00;102804.09;5081027;28;20396;-77
2022/12/17 19:46:16;;;;;;;140.68;39.97;;;;;;;-4.69;100.00;102816.22;5093277;28;20032;-77
2022/12/17 19:48:44;;;;;;;128.73;38.75;;;;;;;-4.70;100.00;102814.47;5093925;28;20112;-76
2022/12/17 19:51:11;;;;;;;134.98;40.75;;;;;;;-4.71;100.00;102813.63;5092832;28;20059;-78
2022/12/17 19:53:38;;;;;;;144.68;40.20;;;;;;;-4.72;100.00;102809.28;5093029;28;20031;-77
2022/12/17 19:56:16;;;;;;;137.40;39.03;;;;;;;-4.73;100.00;102806.66;5093004;28;20115;-77
2022/12/17 19:58:44;;;;;;;134.88;39.55;;;;;;;-4.74;100.00;102813.59;5092946;28;20479;-76
2022/12/17 20:01:12;;;;;;;129.23;38.78;;;;;;;-4.75;100.00;102819.66;5093260;28;20032;-76
2022/12/17 20:03:39;;;;;;;137.98;40.95;;;;;;;-4.75;100.00;102818.78;5092758;28;20052;-77
2022/12/17 20:06:06;;;;;;;140.23;40.20;;;;;;;-4.78;100.00;102815.34;5092666;28;20035;-76
2022/12/17 20:08:32;;;;;;;150.23;40.40;;;;;;;-4.78;100.00;102811.84;5092658;28;20093;-77
2022/12/17 20:11:00;;;;;;;131.80;38.53;;;;;;;-4.80;100.00;102798.00;5075465;28;20395;-77
2022/12/17 20:13:26;;;;;;;142.63;39.97;;;;;;;-4.81;100.00;102804.94;5092696;28;20024;-77
2022/12/17 20:15:59;;;;;;;126.55;36.85;;;;;;;-4.83;100.00;102817.03;5092953;28;20145;-77
2022/12/17 20:18:25;;;;;;;120.50;37.72;;;;;;;-4.85;100.00;102821.34;5092507;28;20024;-76
2022/12/17 20:20:50;;;;;;;127.50;40.13;;;;;;;-4.85;100.00;102825.66;5092806;28;20107;-76
2022/12/17 20:23:15;;;;;;;136.80;38.35;;;;;;;-4.89;100.00;102824.78;5092957;28;20070;-76
2022/12/17 20:25:41;;;;;;;120.07;37.33;;;;;;;-4.91;100.00;102823.91;5093074;28;20036;-76
2022/12/17 20:28:06;;;;;;;125.10;38.92;;;;;;;-4.91;100.00;102823.03;5093170;28;20453;-75
2022/12/17 20:30:32;;;;;;;130.50;39.28;;;;;;;-4.93;100.00;102823.03;5092666;28;20429;-77
2022/12/17 20:32:57;;;;;;;146.23;39.83;;;;;;;-4.94;100.00;102820.41;5093036;28;20047;-76
2022/12/17 20:35:23;;;;;;;138.77;39.85;;;;;;;-4.94;100.00;102829.09;5092522;28;20116;-75
2022/12/17 20:37:48;;;;;;;132.82;40.00;;;;;;;-4.93;100.00;102835.16;5093195;28;20080;-77
2022/12/17 20:40:13;;;;;;;136.98;38.30;;;;;;;-4.94;100.00;102841.19;5092002;28;20054;-78
2022/12/17 20:42:39;;;;;;;130.32;39.38;;;;;;;-4.96;100.00;102839.47;5093187;28;20387;-74
2022/12/17 20:45:04;;;;;;;127.70;38.03;;;;;;;-4.95;100.00;102842.94;5074165;28;20036;-74
2022/12/17 20:47:30;;;;;;;123.97;37.60;;;;;;;-4.94;100.00;102843.78;5092695;28;20034;-78
2022/12/17 20:49:55;;;;;;;117.70;36.22;;;;;;;-4.92;100.00;102831.69;5092668;28;20028;-79
2022/12/17 20:52:21;;;;;;;129.80;37.80;;;;;;;-4.91;100.00;102825.63;5092996;28;20118;-79
2022/12/17 20:54:48;;;;;;;132.85;36.53;;;;;;;-4.93;100.00;102836.00;5092668;28;20386;-78
2022/12/17 20:57:13;;;;;;;136.98;38.00;;;;;;;-4.94;100.00;102829.09;5092268;28;20093;-77
2022/12/17 20:59:39;;;;;;;138.70;38.65;;;;;;;-4.94;100.00;102834.28;5092089;28;20040;-78
2022/12/17 21:02:05;;;;;;;131.38;36.63;;;;;;;-4.94;100.00;102836.88;5073880;28;20500;-77
2022/12/17 21:04:31;;;;;;;127.43;37.88;;;;;;;-4.93;100.00;102824.75;5092614;28;20159;-79
2022/12/17 21:06:56;;;;;;;128.07;37.65;;;;;;;-4.93;100.00;102830.81;5092388;28;20044;-77
2022/12/17 21:09:24;;;;;;;124.90;36.10;;;;;;;-4.96;100.00;102826.50;5075025;28;20044;-76
2022/12/17 21:11:49;;;;;;;116.78;37.28;;;;;;;-4.97;100.00;102835.13;5091980;28;20111;-76
2022/12/17 21:14:16;;;;;;;121.05;36.50;;;;;;;-4.97;100.00;102837.72;5092274;28;20067;-77
2022/12/17 21:16:42;;;;;;;123.20;37.95;;;;;;;-4.99;100.00;102849.81;5092596;28;20039;-77
2022/12/17 21:19:11;;;;;;;125.30;38.80;;;;;;;-4.94;100.00;102855.06;5057663;28;20032;-78
2022/12/17 21:21:37;;;;;;;130.15;38.28;;;;;;;-4.92;100.00;102860.25;5095794;28;20024;-78
2022/12/17 21:24:02;;;;;;;120.00;39.40;;;;;;;-4.92;100.00;102862.88;5095896;28;20119;-77
2022/12/17 21:26:31;;;;;;;126.07;37.00;;;;;;;-4.92;100.00;102865.47;5096095;28;20445;-77
2022/12/17 21:28:56;;;;;;;111.68;37.65;;;;;;;-4.94;100.00;102870.63;5095664;28;20388;-77
2022/12/17 21:31:25;;;;;;;125.50;37.67;;;;;;;-4.95;100.00;102871.50;5095481;28;20044;-77
2022/12/17 21:33:53;;;;;;;113.97;36.33;;;;;;;-4.94;100.00;102882.75;5095776;28;20028;-77
2022/12/17 21:36:20;;;;;;;122.60;37.70;;;;;;;-4.95;100.00;102879.28;5095790;28;20036;-77
2022/12/17 21:38:47;;;;;;;127.10;37.63;;;;;;;-4.98;100.00;102872.34;5078308;28;20031;-77
2022/12/17 21:41:18;;;;;;;114.32;36.10;;;;;;;-4.96;100.00;102867.16;5095400;28;20035;-77
2022/12/17 21:43:43;;;;;;;111.30;36.92;;;;;;;-4.95;100.00;102879.28;5096019;28;20149;-77
2022/12/17 21:46:10;;;;;;;106.20;37.45;;;;;;;-4.99;100.00;102880.97;5095710;28;20060;-76
2022/12/17 21:48:38;;;;;;;117.65;35.83;;;;;;;-5.01;100.00;102880.09;5095759;28;20055;-76
2022/12/17 21:51:05;;;;;;;114.22;37.33;;;;;;;-5.03;100.00;102881.81;5095528;28;20035;-77
2022/12/17 21:53:31;;;;;;;124.53;35.65;;;;;;;-5.02;100.00;102896.53;5077023;28;20027;-76
2022/12/17 21:56:08;;;;;;;109.13;35.35;;;;;;;-5.05;100.00;102895.66;5095515;28;20028;-76
2022/12/17 21:58:33;;;;;;;104.72;35.28;;;;;;;-5.08;100.00;102909.47;5077516;28;20020;-77
2022/12/17 22:01:26;;;;;;;109.22;35.72;;;;;;;-5.09;100.00;102912.94;5096008;28;20034;-78
2022/12/17 22:03:55;;;;;;;110.85;34.20;;;;;;;-5.09;100.00;102909.47;5096110;28;20119;-78
2022/12/17 22:06:23;;;;;;;117.95;35.17;;;;;;;-5.11;100.00;102903.41;5077763;28;20028;-76
2022/12/17 22:08:49;;;;;;;117.85;35.17;;;;;;;-5.13;100.00;102906.84;5095057;28;20048;-75
2022/12/17 22:11:18;;;;;;;106.10;34.83;;;;;;;-5.15;100.00;102905.97;5095479;28;20371;-77
2022/12/17 22:14:04;;;;;;;106.78;35.15;;;;;;;-5.19;100.00;102896.41;5095213;28;20024;-74
2022/12/17 22:16:40;;;;;;;104.00;34.40;;;;;;;-5.25;100.00;102891.16;5095404;28;20032;-76
2022/12/17 22:19:08;;;;;;;109.70;34.40;;;;;;;-5.31;100.00;102886.78;5095732;28;20043;-76
2022/12/17 22:21:35;;;;;;;102.70;33.25;;;;;;;-5.34;100.00;102896.28;5094946;28;20040;-77
2022/12/17 22:24:01;;;;;;;117.40;35.58;;;;;;;-5.37;100.00;102894.53;5094847;28;20055;-76
2022/12/17 22:26:27;;;;;;;114.93;35.28;;;;;;;-5.39;100.00;102893.66;5095024;28;20126;-76
2022/12/17 22:28:53;;;;;;;117.78;35.15;;;;;;;-5.41;100.00;102882.38;5095485;28;20126;-75
2022/12/17 22:34:05;;;;;;;96.07;32.20;;;;;;;-5.50;100.00;102887.50;5094598;28;20058;-75
2022/12/17 22:36:32;;;;;;;116.03;36.25;;;;;;;-5.53;100.00;102888.31;5094384;28;20035;-75
2022/12/17 22:39:02;;;;;;;110.78;33.22;;;;;;;-5.53;100.00;102883.13;5076604;28;20036;-74
2022/12/17 22:44:12;;;;;;;119.43;34.63;;;;;;;-5.50;100.00;102877.13;5095011;28;20047;-75
2022/12/17 22:46:38;;;;;;;123.20;34.50;;;;;;;-5.48;100.00;102880.56;5094646;28;20038;-76
2022/12/17 22:49:03;;;;;;;106.80;32.97;;;;;;;-5.48;100.00;102885.75;5094464;28;20127;-75
2022/12/17 22:51:28;;;;;;;116.47;32.90;;;;;;;-5.47;100.00;102886.66;5094377;28;20391;-75
2022/12/17 22:53:54;;;;;;;106.00;33.60;;;;;;;-5.52;100.00;102895.25;5094395;28;20066;-78
2022/12/17 22:56:20;;;;;;;101.75;33.10;;;;;;;-5.58;100.00;102891.72;5094526;28;20024;-75
2022/12/17 22:58:46;;;;;;;104.55;32.53;;;;;;;-5.67;100.00;102892.53;5093828;28;20469;-75
2022/12/17 23:01:12;;;;;;;105.25;32.65;;;;;;;-5.77;100.00;102893.28;5094254;28;20062;-75
2022/12/17 23:03:37;;;;;;;107.85;31.98;;;;;;;-5.87;100.00;102887.13;5094507;28;20142;-74
2022/12/17 23:06:06;;;;;;;103.30;32.10;;;;;;;-5.94;100.00;102882.72;5094403;28;20032;-75
2022/12/17 23:08:32;;;;;;;103.85;31.08;;;;;;;-6.03;100.00;102889.59;5094470;28;20031;-74
2022/12/17 23:10:57;;;;;;;99.10;31.35;;;;;;;-6.08;100.00;102887.78;5095097;28;20040;-77
2022/12/17 23:13:22;;;;;;;97.63;30.73;;;;;;;-6.11;100.00;102882.56;5094576;28;20036;-74
2022/12/17 23:15:50;;;;;;;109.63;31.63;;;;;;;-6.14;100.00;102882.53;5094520;28;20099;-74
2022/12/17 23:18:15;;;;;;;113.07;33.15;;;;;;;-6.11;100.00;102890.34;5094678;28;20536;-74
2022/12/17 23:20:40;;;;;;;117.40;32.75;;;;;;;-6.11;100.00;102887.75;5094067;28;20111;-73
2022/12/17 23:23:06;;;;;;;109.50;31.17;;;;;;;-6.09;100.00;102896.41;5094575;28;20039;-74
2022/12/17 23:25:31;;;;;;;115.75;31.65;;;;;;;-6.05;100.00;102895.59;5094353;28;20040;-75
2022/12/17 23:27:57;;;;;;;108.90;32.67;;;;;;;-6.04;100.00;102889.56;5094676;28;20110;-75
2022/12/17 23:30:22;;;;;;;116.28;33.25;;;;;;;-5.99;100.00;102887.88;5093920;28;20028;-76
2022/12/17 23:32:48;;;;;;;116.22;33.65;;;;;;;-5.92;100.00;102883.63;5094278;28;20040;-75
2022/12/17 23:35:13;;;;;;;116.57;32.03;;;;;;;-5.87;100.00;102876.75;5093851;28;20032;-75
2022/12/17 23:37:39;;;;;;;106.80;30.42;;;;;;;-5.84;100.00;102871.59;5094240;28;20027;-75
2022/12/17 23:40:09;;;;;;;113.25;31.33;;;;;;;-5.80;100.00;102877.69;5094107;28;20070;-75
2022/12/17 23:42:34;;;;;;;111.00;32.50;;;;;;;-5.79;100.00;102872.53;5093707;28;20357;-75
2022/12/17 23:45:00;;;;;;;137.32;33.00;;;;;;;-5.79;100.00;102859.56;5093968;28;20035;-74
2022/12/17 23:47:25;;;;;;;118.65;31.75;;;;;;;-5.78;100.00;102863.00;5077533;28;20028;-77
2022/12/17 23:49:51;;;;;;;111.53;32.42;;;;;;;-5.77;100.00;102854.38;5094523;28;20399;-76
2022/12/17 23:52:16;;;;;;;119.57;33.42;;;;;;;-5.77;100.00;102839.69;5094371;28;20114;-76
2022/12/17 23:54:41;;;;;;;111.22;32.88;;;;;;;-5.75;100.00;102843.16;5093368;28;20060;-76
2022/12/17 23:57:07;;;;;;;123.18;32.30;;;;;;;-5.73;100.00;102843.16;5093560;28;20507;-76
2022/12/17 23:59:32;;;;;;;119.80;36.17;;;;;;;-5.72;100.00;102850.09;5093997;28;20119;-76
